Meteorología y climatología de Navarra
Datos de la estación - Meteo Navarra

Estación de Gorramendi GN

Altitud 1071 m.


Datos desde el 09/11/2018 hasta el 10/11/2018 en horario solar
Los datos son PROVISIONALES

Anterior Página 1 de 1 Siguiente Descargar: Formato para Excel 2000 o superior   Formato csv   Formato para OpenOffice Calc
Fecha Temperatura Humedad relativa Radiación global Insolación Precipitación Velocidad viento 10 m Velocidad viento 10 m Dirección viento 10 m
ºC % W/m² s l/m² m/s km/h º
09/11/2018 0:00 4.5 98 0.0 0 0.8 8.0 28.7 233
09/11/2018 0:10 4.7 99 0.0 0 0.8 8.3 29.9 251
09/11/2018 0:20 4.6 99 0.0 0 0.5 8.1 29.1 248
09/11/2018 0:30 4.7 99 0.0 0 0.6 9.0 32.3 258
09/11/2018 0:40 4.7 99 0.0 0 0.5 8.3 29.8 257
09/11/2018 0:50 4.6 99 0.0 0 0.8 7.6 27.2 252
09/11/2018 1:00 4.6 99 0.0 0 0.9 7.1 25.5 264
09/11/2018 1:10 4.6 99 0.0 0 1.3 6.4 22.9 285
09/11/2018 1:20 4.6 99 0.0 0 0.5 7.7 27.6 302
09/11/2018 1:30 4.7 99 0.0 0 0.4 9.3 33.3 305
09/11/2018 1:40 4.8 98 0.0 0 0.2 9.0 32.3 310
09/11/2018 1:50 4.7 98 0.0 0 0.1 8.4 30.1 306
09/11/2018 2:00 4.7 98 0.0 0 0.0 8.0 28.8 310
09/11/2018 2:10 4.7 98 0.0 0 0.0 8.3 30.0 305
09/11/2018 2:20 4.7 98 0.0 0 0.0 8.1 29.0 299
09/11/2018 2:30 4.8 99 0.0 0 0.0 9.7 34.8 306
09/11/2018 2:40 4.8 99 0.0 0 0.2 9.9 35.5 305
09/11/2018 2:50 4.8 99 0.0 0 0.6 10.7 38.7 306
09/11/2018 3:00 4.8 99 0.0 0 0.8 9.6 34.7 315
09/11/2018 3:10 4.8 99 0.0 0 0.6 12.8 46.2 334
09/11/2018 3:20 4.4 99 0.0 0 0.2 15.4 55.3 339
09/11/2018 3:30 4.1 99 0.0 0 0.2 16.8 60.3 331
09/11/2018 3:40 4.3 99 0.0 0 0.2 16.8 60.4 338
09/11/2018 3:50 4.4 99 0.0 0 0.5 13.5 48.5 340
09/11/2018 4:00 4.5 99 0.0 0 0.7 12.2 43.9 324
09/11/2018 4:10 4.4 99 0.0 0 1.0 13.5 48.5 332
09/11/2018 4:20 4.4 99 0.0 0 1.0 11.9 43.0 328
09/11/2018 4:30 4.5 99 0.0 0 0.3 13.7 49.1 331
09/11/2018 4:40 4.5 99 0.0 0 0.5 15.0 54.1 335
09/11/2018 4:50 4.6 99 0.0 0 0.4 18.5 66.5 327
09/11/2018 5:00 4.4 99 0.0 0 0.3 16.8 60.6 322
09/11/2018 5:10 4.3 99 0.0 0 0.2 16.2 58.2 327
09/11/2018 5:20 4.2 99 0.0 0 0.0 14.0 50.5 327
09/11/2018 5:30 4.2 99 0.0 0 0.1 15.0 53.9 329
09/11/2018 5:40 4.3 99 0.0 0 0.1 13.6 48.9 330
09/11/2018 5:50 4.3 99 0.0 0 0.2 12.6 45.4 333
09/11/2018 6:00 4.4 100 0.0 0 0.2 13.9 50.0 320
09/11/2018 6:10 4.3 100 0.0 0 0.1 13.6 48.8 323
09/11/2018 6:20 4.3 100 0.0 0 0.0 13.6 49.1 325
09/11/2018 6:30 4.4 100 0.0 0 0.1 13.6 49.0 321
09/11/2018 6:40 4.3 100 0.0 0 0.0 12.4 44.7 323
09/11/2018 6:50 4.3 100 0.0 0 0.0 11.4 41.0 325
09/11/2018 7:00 4.2 100 0.0 0 0.0 10.9 39.1 320
09/11/2018 7:10 4.1 100 0.0 0 0.0 12.5 45.0 322
09/11/2018 7:20 4.1 100 0.0 0 0.1 11.8 42.5 321
09/11/2018 7:30 4.0 100 0.0 0 0.0 11.3 40.5 321
09/11/2018 7:40 4.1 100 8.7 0 0.0 10.8 38.8 321
09/11/2018 7:50 4.1 100 22.8 0 0.0 11.4 41.1 313
09/11/2018 8:00 4.1 100 25.2 0 0.0 10.1 36.4 322
09/11/2018 8:10 4.1 100 34.9 0 0.0 9.7 35.1 324
09/11/2018 8:20 4.2 100 37.2 0 0.0 8.6 30.8 319
09/11/2018 8:30 4.2 100 44.9 0 0.0 7.5 26.9 320
09/11/2018 8:40 4.3 100 53.0 0 0.3 6.5 23.5 316
09/11/2018 8:50 4.3 100 49.1 0 0.2 7.6 27.5 322
09/11/2018 9:00 4.3 100 65.2 0 0.0 8.1 29.0 320
09/11/2018 9:10 4.4 100 71.2 0 0.1 7.7 27.6 322
09/11/2018 9:20 4.4 100 97.8 0 0.0 7.6 27.3 324
09/11/2018 9:30 4.5 100 88.6 0 0.0 7.3 26.4 314
09/11/2018 9:40 4.5 100 96.0 0 0.0 6.9 24.8 316
09/11/2018 9:50 4.5 100 114.8 0 0.0 6.9 24.7 313
09/11/2018 10:00 4.6 100 114.1 0 0.0 6.8 24.4 303
09/11/2018 10:10 4.6 100 92.9 0 0.0 7.1 25.5 307
09/11/2018 10:20 4.6 100 100.9 0 0.0 7.5 27.0 315
09/11/2018 10:30 4.5 100 115.9 0 0.0 7.6 27.2 309
09/11/2018 10:40 4.6 100 120.5 0 0.0 5.9 21.2 311
09/11/2018 10:50 4.7 100 178.3 20 0.0 6.0 21.7 308
09/11/2018 11:00 4.7 100 144.1 0 0.0 5.3 19.2 316
09/11/2018 11:10 4.7 100 258.2 226 0.0 5.6 20.2 303
09/11/2018 11:20 4.9 100 306.4 456 0.0 5.8 21.0 309
09/11/2018 11:30 5.0 100 264.9 344 0.0 5.2 18.7 304
09/11/2018 11:40 5.1 100 168.2 56 0.0 4.0 14.4 294
09/11/2018 11:50 4.8 100 173.4 78 0.0 3.7 13.1 270
09/11/2018 12:00 4.9 100 180.5 0 0.0 1.9 6.9 250
09/11/2018 12:10 5.0 100 382.3 482 0.0 2.4 8.7 236
09/11/2018 12:20 4.9 100 525.6 562 0.0 2.1 7.4 205
09/11/2018 12:30 5.1 100 313.6 228 0.0 2.5 8.8 191
09/11/2018 12:40 5.4 100 183.4 26 0.0 2.9 10.5 231
09/11/2018 12:50 5.1 100 184.7 0 0.0 3.6 13.0 224
09/11/2018 13:00 5.2 100 195.7 34 0.0 4.0 14.4 237
09/11/2018 13:10 5.2 99 358.8 272 0.0 4.0 14.2 221
09/11/2018 13:20 5.6 99 530.6 558 0.0 4.9 17.5 222
09/11/2018 13:30 5.5 98 351.5 372 0.0 5.5 19.6 225
09/11/2018 13:40 6.2 94 272.1 218 0.0 6.6 23.6 234
09/11/2018 13:50 5.9 89 246.1 438 0.0 6.8 24.4 233
09/11/2018 14:00 6.1 90 236.9 600 0.0 6.8 24.3 237
09/11/2018 14:10 6.2 89 276.8 600 0.0 7.4 26.5 225
09/11/2018 14:20 6.3 88 326.1 600 0.0 7.1 25.6 219
09/11/2018 14:30 6.6 87 295.5 600 0.0 7.3 26.4 229
09/11/2018 14:40 7.0 82 368.8 600 0.0 8.1 29.1 234
09/11/2018 14:50 7.1 81 328.6 600 0.0 8.1 29.0 226
09/11/2018 15:00 7.0 80 280.5 600 0.0 7.8 28.1 222
09/11/2018 15:10 7.1 77 213.6 600 0.0 8.5 30.6 213
09/11/2018 15:20 7.3 74 223.1 600 0.0 8.6 30.9 196
09/11/2018 15:30 7.1 78 183.5 600 0.0 9.3 33.4 186
09/11/2018 15:40 7.3 77 162.7 600 0.0 9.2 33.1 198
09/11/2018 15:50 7.2 76 71.3 182 0.0 10.8 39.0 202
09/11/2018 16:00 7.0 77 63.4 152 0.0 10.9 39.3 205
09/11/2018 16:10 6.9 77 51.2 206 0.0 11.0 39.5 211
09/11/2018 16:20 6.8 74 47.9 500 0.0 11.6 41.8 219
09/11/2018 16:30 6.6 76 24.0 40 0.0 11.6 41.7 221
09/11/2018 16:40 6.6 71 2.2 0 0.0 11.3 40.7 218
09/11/2018 16:50 6.5 71 0.0 0 0.0 10.7 38.6 212
09/11/2018 17:00 6.5 70 0.0 0 0.0 10.4 37.4 214
09/11/2018 17:10 6.3 68 0.0 0 0.0 10.0 35.9 221
09/11/2018 17:20 6.1 69 0.0 0 0.0 9.8 35.4 221
09/11/2018 17:30 5.8 72 0.0 0 0.0 8.9 32.0 223
09/11/2018 17:40 5.9 71 0.0 0 0.0 10.9 39.2 230
09/11/2018 17:50 6.1 67 0.0 0 0.0 11.1 39.9 224
09/11/2018 18:00 6.0 68 0.0 0 0.0 10.4 37.4 212
09/11/2018 18:10 5.9 70 0.0 0 0.0 10.5 37.9 207
09/11/2018 18:20 6.0 70 0.0 0 0.0 10.9 39.1 212
09/11/2018 18:30 6.1 70 0.0 0 0.0 11.3 40.6 208
09/11/2018 18:40 6.3 70 0.0 0 0.0 11.4 40.9 207
09/11/2018 18:50 6.4 70 0.0 0 0.0 11.3 40.8 206
09/11/2018 19:00 6.5 70 0.0 0 0.0 11.6 41.7 208
09/11/2018 19:10 6.4 73 0.0 0 0.0 11.4 41.0 208
09/11/2018 19:20 6.4 76 0.0 0 0.0 10.9 39.2 209
09/11/2018 19:30 6.3 79 0.0 0 0.0 11.2 40.3 211
09/11/2018 19:40 6.4 80 0.0 0 0.0 11.3 40.6 211
09/11/2018 19:50 6.5 81 0.0 0 0.0 11.1 39.9 209
09/11/2018 20:00 6.3 83 0.0 0 0.0 11.2 40.4 209
09/11/2018 20:10 6.3 83 0.0 0 0.0 11.8 42.6 208
09/11/2018 20:20 6.3 84 0.0 0 0.0 12.3 44.2 209
09/11/2018 20:30 6.2 84 0.0 0 0.0 13.0 46.8 209
09/11/2018 20:40 6.5 84 0.0 0 0.0 12.3 44.3 208
09/11/2018 20:50 6.3 85 0.0 0 0.0 11.7 42.0 197
09/11/2018 21:00 6.3 86 0.0 0 0.0 10.9 39.2 201
09/11/2018 21:10 6.2 87 0.0 0 0.0 12.1 43.4 207
09/11/2018 21:20 6.0 88 0.0 0 0.0 12.0 43.0 208
09/11/2018 21:30 6.2 87 0.0 0 0.0 12.7 45.8 210
09/11/2018 21:40 6.4 86 0.0 0 0.0 13.0 46.9 212
09/11/2018 21:50 6.6 85 0.0 0 0.0 13.6 49.0 214
09/11/2018 22:00 6.8 85 0.0 0 0.0 13.2 47.3 212
09/11/2018 22:10 7.0 84 0.0 0 0.0 13.6 49.1 210
09/11/2018 22:20 7.1 84 0.0 0 0.0 13.9 50.1 217
09/11/2018 22:30 7.0 85 0.0 0 0.0 14.0 50.5 212
09/11/2018 22:40 7.0 84 0.0 0 0.0 14.9 53.6 214
09/11/2018 22:50 7.2 83 0.0 0 0.0 15.8 56.7 217
09/11/2018 23:00 7.5 81 0.0 0 0.0 16.9 60.8 221
09/11/2018 23:10 7.8 79 0.0 0 0.0 17.2 61.8 219
09/11/2018 23:20 7.6 79 0.0 0 0.0 15.7 56.4 223
09/11/2018 23:30 7.6 78 0.0 0 0.0 15.5 55.8 222
09/11/2018 23:40 7.6 77 0.0 0 0.0 14.8 53.2 215
09/11/2018 23:50 7.3 78 0.0 0 0.0 16.0 57.6 218
Anterior Página 1 de 1 Siguiente
Los datos de precipitación registrados en estaciones que están en cumbres son inferiores a lo real, como consecuencia del efecto del viento y de la nieve.


NOTA: Tipo de datos según el color:
   - Valores diarios o 10 minutos correctos
   - Valores diarios calculados a partir de un número de datos 10 minutos menor que 144 y mayor que 120, o de un número de datos semihorarios menor que 48 y mayor que 40 (caso de las estaciones de Riegos de Navarra y del MARM)
   - Valores diez minutos estimados


Contacto        Enlaces        Aviso legal